createdAt,value
2019-03-04T00:00:26.075Z,2.17
2019-03-04T00:01:29.788Z,2.00
2019-03-04T00:06:15.964Z,1.77
2019-03-04T00:09:33.436Z,1.43
2019-03-04T00:17:27.028Z,2.07
2019-03-04T00:30:21.362Z,2.00
2019-03-04T00:46:56.208Z,1.60
2019-03-04T00:50:00.882Z,1.70
2019-03-04T00:52:41.514Z,1.80
2019-03-04T00:55:26.924Z,1.50
2019-03-04T00:58:08.598Z,1.20
2019-03-04T01:41:58.150Z,1.23
2019-03-04T01:44:51.742Z,0.80
2019-03-04T01:47:32.954Z,1.13
2019-03-04T01:50:07.952Z,0.90
2019-03-04T01:52:32.383Z,1.10
2019-03-04T01:55:10.789Z,1.10
2019-03-04T01:57:47.834Z,0.83
2019-03-04T02:00:33.564Z,1.00
2019-03-04T02:06:08.481Z,0.83
2019-03-04T02:11:37.373Z,0.90
2019-03-04T02:14:08.739Z,1.07
2019-03-04T02:16:39.193Z,0.90
2019-03-04T02:19:12.696Z,1.00
2019-03-04T02:21:43.376Z,1.00
2019-03-04T02:24:34.515Z,1.10
2019-03-04T02:27:12.808Z,0.90
2019-03-04T02:30:24.267Z,1.13
2019-03-04T02:33:06.050Z,1.70
2019-03-04T02:36:15.788Z,1.20
2019-03-04T02:41:35.525Z,1.57
2019-03-04T02:44:15.157Z,1.20
2019-03-04T02:46:57.632Z,1.30
2019-03-04T02:50:19.628Z,1.30
2019-03-04T02:56:09.963Z,1.47
2019-03-04T04:08:56.065Z,1.07
2019-03-04T04:11:29.928Z,1.27
2019-03-04T04:35:20.256Z,1.43
2019-03-04T04:41:30.602Z,1.20
2019-03-04T04:44:12.586Z,0.83
2019-03-04T04:47:38.759Z,0.60
2019-03-04T05:12:38.181Z,0.80
2019-03-04T05:15:21.269Z,1.20
2019-03-04T05:18:00.514Z,1.70
2019-03-04T05:23:38.092Z,2.40
2019-03-04T05:26:07.277Z,3.47
2019-03-04T05:28:38.787Z,2.80
2019-03-04T05:31:08.037Z,2.90
2019-03-04T05:33:49.950Z,2.47
2019-03-04T05:36:23.219Z,2.27
2019-03-04T05:42:41.221Z,1.80
2019-03-04T06:01:21.195Z,2.00
2019-03-04T06:25:07.414Z,2.30
2019-03-04T07:14:31.000Z,2.27
2019-03-04T07:17:16.882Z,2.30
2019-03-04T07:29:45.894Z,2.30
2019-03-04T07:35:18.199Z,2.10
2019-03-04T07:37:47.270Z,2.30
2019-03-04T07:40:25.165Z,2.40
2019-03-04T07:42:54.719Z,2.73
2019-03-04T07:45:24.966Z,2.53
2019-03-04T07:47:53.906Z,2.40
2019-03-04T07:50:22.664Z,2.63
2019-03-04T07:52:54.389Z,2.27
2019-03-04T07:55:23.261Z,3.00
2019-03-04T07:57:51.951Z,2.03
2019-03-04T08:00:21.975Z,1.63
2019-03-04T08:02:50.928Z,1.77
2019-03-04T08:05:19.775Z,0.90
2019-03-04T08:07:56.956Z,1.20
2019-03-04T08:10:51.668Z,1.57
2019-03-04T08:13:42.008Z,1.23
2019-03-04T08:16:12.021Z,1.17
2019-03-04T08:18:40.923Z,0.77
2019-03-04T08:21:11.413Z,0.60
2019-03-04T08:23:42.299Z,1.00
2019-03-04T08:26:12.153Z,1.17
2019-03-04T08:28:42.500Z,0.83
2019-03-04T08:31:12.609Z,1.03
2019-03-04T08:33:41.575Z,0.83
2019-03-04T08:36:10.504Z,0.87
2019-03-04T08:38:39.357Z,0.80
2019-03-04T08:44:04.425Z,1.10
2019-03-04T08:46:38.326Z,1.20
2019-03-04T08:49:07.303Z,1.73
2019-03-04T08:51:36.084Z,1.30
2019-03-04T08:54:04.877Z,1.30
2019-03-04T08:56:33.707Z,1.53
2019-03-04T08:59:05.243Z,1.30
2019-03-04T09:01:35.713Z,1.40
2019-03-04T09:04:04.756Z,1.30
2019-03-04T09:06:33.551Z,1.50
2019-03-04T09:09:07.228Z,1.20
2019-03-04T09:11:36.278Z,1.60
2019-03-04T09:14:07.187Z,1.70
2019-03-04T09:16:37.733Z,1.67
2019-03-04T09:19:06.523Z,1.77
2019-03-04T09:21:35.256Z,2.37
2019-03-04T09:24:04.079Z,1.90
2019-03-04T09:26:32.879Z,2.63
2019-03-04T09:29:02.009Z,1.97
2019-03-04T09:31:31.128Z,1.83
2019-03-04T09:33:59.784Z,1.60
2019-03-04T09:36:28.662Z,1.50
2019-03-04T09:38:57.476Z,1.70
2019-03-04T09:41:26.268Z,2.13
2019-03-04T09:43:55.058Z,1.70
2019-03-04T09:46:23.776Z,1.67
2019-03-04T09:48:52.461Z,1.30
2019-03-04T09:51:24.616Z,1.60
2019-03-04T09:53:53.524Z,1.57
2019-03-04T09:56:24.827Z,1.30
2019-03-04T09:58:53.889Z,1.73
2019-03-04T10:01:28.731Z,1.50
2019-03-04T10:04:01.475Z,1.77
2019-03-04T10:06:39.977Z,1.47
2019-03-04T10:09:37.391Z,1.30
2019-03-04T10:12:44.441Z,1.67
2019-03-04T10:15:22.038Z,1.37
2019-03-04T10:18:10.157Z,1.67
2019-03-04T10:20:59.051Z,1.77
2019-03-04T10:23:50.175Z,1.60
2019-03-04T10:26:59.457Z,2.03
2019-03-04T10:29:40.081Z,1.70
2019-03-04T10:32:14.403Z,1.70
2019-03-04T10:34:58.199Z,2.03
2019-03-04T10:37:41.579Z,2.00
2019-03-04T10:40:49.983Z,1.70
2019-03-04T10:49:48.381Z,1.60
2019-03-04T10:52:17.272Z,1.60
2019-03-04T10:54:45.959Z,1.80
2019-03-04T10:57:14.683Z,1.77
2019-03-04T10:59:43.397Z,1.53
2019-03-04T11:02:12.231Z,1.80
2019-03-04T11:04:40.976Z,1.80
2019-03-04T11:07:09.831Z,2.10
2019-03-04T11:09:38.509Z,1.63
2019-03-04T11:12:07.413Z,1.70
2019-03-04T11:14:44.969Z,1.70
2019-03-04T11:17:15.578Z,1.33
2019-03-04T11:22:40.390Z,1.77
2019-03-04T11:25:12.808Z,1.30
2019-03-04T11:27:41.710Z,1.47
2019-03-04T11:30:16.166Z,1.30
2019-03-04T11:32:45.003Z,1.13
2019-03-04T11:35:15.239Z,1.73
2019-03-04T11:37:45.226Z,1.47
2019-03-04T11:40:22.089Z,1.43
2019-03-04T11:42:50.714Z,1.30
2019-03-04T11:45:19.522Z,1.30
2019-03-04T11:47:48.410Z,1.80
2019-03-04T11:50:17.684Z,1.17
2019-03-04T11:52:46.534Z,1.13
2019-03-04T11:55:18.548Z,1.87
2019-03-04T11:57:47.282Z,1.17
2019-03-04T12:00:22.808Z,1.57
2019-03-04T12:02:51.747Z,1.00
2019-03-04T12:05:20.528Z,1.27
2019-03-04T12:07:49.277Z,1.17
2019-03-04T12:10:18.625Z,1.40
2019-03-04T12:12:47.632Z,1.27
2019-03-04T12:15:18.422Z,1.83
2019-03-04T12:17:47.574Z,1.17
2019-03-04T12:20:16.788Z,1.00
2019-03-04T12:22:45.437Z,1.30
2019-03-04T12:25:19.040Z,1.43
2019-03-04T12:27:47.822Z,1.57
2019-03-04T12:30:19.415Z,1.50
2019-03-04T12:33:06.848Z,1.30
2019-03-04T12:35:28.711Z,2.20
2019-03-04T12:38:12.930Z,1.70
2019-03-04T12:40:56.248Z,1.40
2019-03-04T12:43:43.171Z,1.37
2019-03-04T12:46:17.752Z,1.37
2019-03-04T12:49:00.133Z,1.53
2019-03-04T12:51:28.690Z,1.50
2019-03-04T12:54:02.114Z,1.60
2019-03-04T12:56:31.468Z,1.30
2019-03-04T12:59:01.772Z,1.47
2019-03-04T13:01:32.278Z,1.20
2019-03-04T13:04:01.180Z,1.10
2019-03-04T13:06:29.972Z,1.23
2019-03-04T13:08:58.794Z,1.63
2019-03-04T13:11:27.541Z,1.50
2019-03-04T13:14:03.798Z,1.93
2019-03-04T13:16:32.593Z,1.10
2019-03-04T13:19:07.579Z,1.30
2019-03-04T13:21:36.317Z,1.67
2019-03-04T13:24:05.432Z,1.47
2019-03-04T13:26:34.231Z,2.07
2019-03-04T13:29:04.962Z,1.73
2019-03-04T13:31:33.508Z,1.60
2019-03-04T13:34:03.351Z,1.60
2019-03-04T13:36:33.764Z,1.73
2019-03-04T13:39:07.860Z,2.07
2019-03-04T13:41:36.896Z,1.07
2019-03-04T13:44:05.817Z,1.33
2019-03-04T13:46:34.680Z,1.70
2019-03-04T13:49:09.974Z,1.33
2019-03-04T13:51:51.548Z,0.87
2019-03-04T13:54:25.964Z,1.03
2019-03-04T14:03:43.269Z,1.50
2019-03-04T14:06:11.572Z,1.23
2019-03-04T14:08:54.609Z,1.33
2019-03-04T14:11:25.757Z,1.10
2019-03-04T14:14:08.166Z,1.17
2019-03-04T14:16:36.089Z,1.10
2019-03-04T14:19:10.102Z,1.40
2019-03-04T14:21:43.614Z,1.70
2019-03-04T14:24:12.334Z,1.10
2019-03-04T14:26:41.180Z,1.63
2019-03-04T14:29:09.998Z,1.80
2019-03-04T14:31:38.542Z,1.53
2019-03-04T14:34:07.505Z,1.80
2019-03-04T14:36:43.559Z,1.90
2019-03-04T14:39:14.573Z,2.17
2019-03-04T14:41:43.377Z,1.60
2019-03-04T14:44:19.243Z,1.83
2019-03-04T14:46:47.974Z,1.70
2019-03-04T14:49:26.009Z,1.90
2019-03-04T14:52:09.202Z,2.97
2019-03-04T14:54:36.774Z,2.33
2019-03-04T15:00:10.594Z,2.13
2019-03-04T15:02:33.212Z,2.10
2019-03-04T15:05:08.422Z,1.87
2019-03-04T15:07:38.962Z,1.67
2019-03-04T15:10:09.410Z,2.10
2019-03-04T15:12:39.747Z,2.17
2019-03-04T15:15:14.479Z,1.87
2019-03-04T15:17:43.142Z,1.93
2019-03-04T15:20:28.882Z,2.20
2019-03-04T15:23:02.907Z,1.73
2019-03-04T15:25:37.453Z,1.93
2019-03-04T15:28:27.261Z,1.87
2019-03-04T15:31:11.587Z,2.33
2019-03-04T15:33:42.743Z,2.30
2019-03-04T15:36:11.518Z,2.57
2019-03-04T15:38:41.831Z,1.60
2019-03-04T15:41:11.141Z,2.30
2019-03-04T15:43:39.984Z,2.80
2019-03-04T15:46:08.680Z,1.90
2019-03-04T15:48:37.446Z,2.33
2019-03-04T15:51:06.190Z,2.00
2019-03-04T15:53:35.036Z,2.00
2019-03-04T15:56:03.766Z,1.90
2019-03-04T15:58:36.274Z,1.93
2019-03-04T16:01:05.530Z,2.60
2019-03-04T16:03:59.944Z,2.10
2019-03-04T16:06:28.877Z,2.17
2019-03-04T16:08:57.874Z,2.40
2019-03-04T16:11:26.891Z,2.23
2019-03-04T16:13:56.295Z,1.80
2019-03-04T16:16:26.060Z,2.23
2019-03-04T16:18:54.954Z,2.23
2019-03-04T16:21:23.658Z,1.43
2019-03-04T16:23:56.994Z,2.20
2019-03-04T16:26:25.880Z,1.77
2019-03-04T16:28:54.703Z,1.67
2019-03-04T16:31:25.236Z,1.83
2019-03-04T16:33:56.842Z,1.63
2019-03-04T16:36:25.530Z,2.37
2019-03-04T16:38:54.260Z,2.13
2019-03-04T16:41:22.956Z,2.33
2019-03-04T16:43:51.734Z,2.33
2019-03-04T16:46:20.468Z,3.07
2019-03-04T16:48:49.203Z,1.80
2019-03-04T16:51:17.954Z,1.70
2019-03-04T16:53:46.845Z,2.27
2019-03-04T16:56:15.699Z,2.03
2019-03-04T16:58:50.190Z,1.83
2019-03-04T17:01:18.977Z,1.80
2019-03-04T17:03:47.656Z,1.53
2019-03-04T17:06:17.384Z,1.93
2019-03-04T17:08:47.729Z,1.90
2019-03-04T17:11:16.464Z,1.67
2019-03-04T17:13:45.320Z,1.20
2019-03-04T17:16:14.042Z,0.80
2019-03-04T17:18:42.805Z,0.93
2019-03-04T17:21:11.479Z,1.33
2019-03-04T17:23:40.182Z,1.10
2019-03-04T17:26:09.148Z,1.10
2019-03-04T17:28:37.842Z,1.20
2019-03-04T17:31:06.776Z,1.00
2019-03-04T17:33:35.531Z,0.70
2019-03-04T17:36:13.961Z,1.00
2019-03-04T17:38:50.592Z,0.80
2019-03-04T17:41:23.030Z,1.13
2019-03-04T17:43:53.372Z,1.03
2019-03-04T17:46:25.377Z,0.90
2019-03-04T17:48:54.302Z,1.00
2019-03-04T17:51:23.986Z,0.90
2019-03-04T17:53:54.282Z,1.10
2019-03-04T17:56:30.466Z,0.93
2019-03-04T17:59:07.438Z,1.03
2019-03-04T18:01:36.354Z,1.00
2019-03-04T18:04:05.463Z,1.40
2019-03-04T18:06:40.649Z,1.30
2019-03-04T18:09:09.388Z,1.47
2019-03-04T18:11:38.248Z,1.50
2019-03-04T18:14:08.366Z,1.60
2019-03-04T18:16:41.778Z,1.60
2019-03-04T18:19:10.633Z,2.30
2019-03-04T18:21:39.349Z,2.00
2019-03-04T18:24:07.968Z,1.67
2019-03-04T18:26:39.918Z,1.87
2019-03-04T18:29:23.643Z,1.73
2019-03-04T18:32:04.024Z,2.13
2019-03-04T18:34:47.627Z,2.73
2019-03-04T18:37:40.838Z,2.03
2019-03-04T18:40:33.826Z,2.27
2019-03-04T18:43:11.433Z,2.23
2019-03-04T18:46:13.071Z,1.67
2019-03-04T18:48:58.424Z,2.53
2019-03-04T18:51:27.924Z,2.37
2019-03-04T18:53:59.601Z,2.77
2019-03-04T18:59:20.530Z,2.33
2019-03-04T19:01:49.545Z,3.10
2019-03-04T19:04:18.290Z,3.17
2019-03-04T19:06:47.150Z,2.60
2019-03-04T19:09:16.024Z,1.80
2019-03-04T19:11:44.768Z,2.10
2019-03-04T19:14:13.795Z,2.60
2019-03-04T19:16:43.152Z,3.00
2019-03-04T19:19:13.756Z,2.77
2019-03-04T19:21:42.626Z,2.77
2019-03-04T19:24:11.396Z,2.43
2019-03-04T19:26:40.172Z,2.47
2019-03-04T19:29:10.843Z,2.73
2019-03-04T19:31:42.593Z,3.50
2019-03-04T19:34:11.521Z,3.43
2019-03-04T19:36:40.485Z,2.93
2019-03-04T19:39:09.402Z,3.90
2019-03-04T19:41:38.462Z,3.20
2019-03-04T19:44:07.437Z,3.07
2019-03-04T19:46:37.871Z,3.00
2019-03-04T19:49:09.414Z,3.07
2019-03-04T19:51:38.198Z,3.33
2019-03-04T19:54:07.172Z,3.80
2019-03-04T19:56:48.326Z,3.62
2019-03-04T19:59:16.914Z,4.03
2019-03-04T20:01:48.935Z,3.53
2019-03-04T20:04:17.791Z,2.90
2019-03-04T20:06:46.779Z,3.00
2019-03-04T20:09:15.550Z,3.93
2019-03-04T20:11:44.458Z,3.80
2019-03-04T20:14:13.283Z,3.60
2019-03-04T20:16:42.186Z,4.13
2019-03-04T20:19:11.151Z,3.50
2019-03-04T20:21:40.009Z,3.37
2019-03-04T20:24:21.057Z,3.90
2019-03-04T20:26:57.231Z,4.53
2019-03-04T20:29:32.099Z,2.70
2019-03-04T20:32:14.929Z,3.37
2019-03-04T20:34:49.238Z,2.87
2019-03-04T20:37:28.021Z,3.60
2019-03-04T20:40:03.549Z,3.57
2019-03-04T20:42:35.083Z,3.70
2019-03-04T20:45:05.515Z,2.93
2019-03-04T20:47:37.941Z,3.97
2019-03-04T20:50:12.927Z,3.70
2019-03-04T20:52:55.277Z,2.37
2019-03-04T20:55:24.233Z,3.80
2019-03-04T20:57:53.061Z,3.67
2019-03-04T21:00:36.106Z,2.77
2019-03-04T21:03:09.345Z,2.80
2019-03-04T21:05:39.452Z,2.87
2019-03-04T21:08:08.345Z,2.67
2019-03-04T21:10:40.334Z,2.67
2019-03-04T21:13:13.915Z,3.07
2019-03-04T21:15:42.721Z,2.67
2019-03-04T21:18:11.492Z,2.83
2019-03-04T21:20:40.323Z,2.80
2019-03-04T21:23:14.922Z,3.03
2019-03-04T21:25:58.311Z,3.17
2019-03-04T21:28:57.446Z,3.63
2019-03-04T21:31:36.355Z,2.97
2019-03-04T21:40:58.133Z,3.10
2019-03-04T21:43:40.077Z,2.20
2019-03-04T21:49:06.271Z,2.10
2019-03-04T21:54:47.034Z,2.13
2019-03-04T22:03:50.703Z,2.03
2019-03-04T22:06:27.760Z,1.60
2019-03-04T22:09:02.655Z,1.93
2019-03-04T22:11:36.287Z,1.70
2019-03-04T22:14:13.098Z,2.00
2019-03-04T22:16:42.712Z,1.90
2019-03-04T22:19:11.583Z,1.30
2019-03-04T22:21:40.610Z,1.40
2019-03-04T22:24:09.525Z,1.40
2019-03-04T22:26:38.722Z,1.30
2019-03-04T22:29:07.580Z,1.00
2019-03-04T22:31:36.543Z,1.50
2019-03-04T22:34:05.998Z,1.07
2019-03-04T22:36:34.920Z,1.63
2019-03-04T22:39:06.367Z,1.43
2019-03-04T22:41:35.180Z,1.50
2019-03-04T22:44:04.019Z,1.70
2019-03-04T22:46:33.276Z,1.67
2019-03-04T22:49:07.419Z,1.60
2019-03-04T22:51:36.302Z,1.30
2019-03-04T22:54:05.014Z,2.10
2019-03-04T22:56:33.668Z,1.50
2019-03-04T22:59:02.516Z,1.50
2019-03-04T23:01:56.742Z,2.00
2019-03-04T23:04:25.498Z,2.10
2019-03-04T23:07:02.716Z,2.27
2019-03-04T23:30:16.500Z,1.70
2019-03-04T23:32:59.038Z,1.67
2019-03-04T23:35:29.568Z,2.43
2019-03-04T23:37:58.590Z,2.03
2019-03-04T23:40:48.534Z,1.90
2019-03-04T23:43:43.009Z,2.00
2019-03-04T23:46:14.765Z,1.60
2019-03-04T23:48:43.409Z,1.83
2019-03-04T23:51:12.165Z,1.70
2019-03-04T23:53:40.999Z,2.00
2019-03-04T23:56:09.744Z,2.30
2019-03-04T23:58:38.478Z,2.37
